Terminal Aerodrome Forecast
Issued by NWS

Home | Current Version | Previous Version | Graphics & Text | Print | Product List | Glossary On
Versions: 1 2 3 4 5 6 7 8 9 10 11 12 13 14 15 16 17 18 19
000
FTUS43 KBIS 280500
TAFJMS
TAF
KJMS 280535Z 2806/2906 13008KT P6SM SKC
     FM280900 05008KT P6SM SCT030 SCT050
     FM281200 02015KT P6SM SCT020 BKN030 OVC050
     FM281800 02016G22KT P6SM VCSH BKN015 OVC025
     FM290200 02015KT 5SM BR VCSH BKN012 OVC020=

USA.gov is the U.S. government's official web portal to all federal, state and local government web resources and services.